Данни от 19.08.2019 г. 09:11:52

Температура вътрешна: 26.0 °C
Температура външна: 21.5 °C
Атмосферно налягане: 1000.6 hPa
Атмосферно налягане на морско равнище: 1018.5 hPa
Влажност: 44.6 %



История от последните 24 часа

Дата и часTin [°C]P [hPa]Psl [hPa]H [%]Tout [°C]
   19.08.2019 г. 09:00:52      25.9      1000.7      1018.6      44.6      21.1   
   19.08.2019 г. 08:30:52      25.9      1000.5      1018.4      44.9      20.4   
   19.08.2019 г. 08:00:52      25.8      1000.4      1018.3      44.3      19.4   
   19.08.2019 г. 07:30:53      25.5      1000.2      1018.1      44.0      18.5   
   19.08.2019 г. 07:00:52      25.6      1000.2      1018.0      43.6      18.3   
   19.08.2019 г. 06:30:53      25.6      1000.1      1017.9      43.5      18.4   
   19.08.2019 г. 06:00:52      25.5      999.9      1017.7      44.0      18.8   
   19.08.2019 г. 05:30:53      25.6      999.8      1017.6      43.9      19.1   
   19.08.2019 г. 05:00:53      25.7      999.5      1017.4      43.6      19.6   
   19.08.2019 г. 04:30:53      25.7      999.5      1017.4      43.4      20.1   
   19.08.2019 г. 04:00:53      25.7      999.5      1017.3      42.8      20.6   
   19.08.2019 г. 03:30:53      25.7      999.4      1017.2      42.8      20.6   
   19.08.2019 г. 03:00:53      25.9      999.4      1017.3      43.9      20.9   
   19.08.2019 г. 02:30:53      25.9      999.4      1017.2      43.3      21.3   
   19.08.2019 г. 02:00:53      26.0      999.4      1017.3      42.6      21.6   
   19.08.2019 г. 01:30:54      26.1      999.4      1017.3      43.5      22.0   
   19.08.2019 г. 01:00:53      25.9      999.4      1017.2      42.6      22.3   
   19.08.2019 г. 00:30:53      25.8      999.2      1017.0      42.6      22.1   
   19.08.2019 г. 00:00:53      26.0      999.1      1017.0      42.2      22.4   
   18.08.2019 г. 23:30:53      26.1      999.1      1016.9      42.0      22.4   
   18.08.2019 г. 23:00:54      26.0      999.0      1016.8      41.7      22.0   
   18.08.2019 г. 22:30:53      26.3      999.1      1016.9      40.6      23.3   
   18.08.2019 г. 22:00:54      26.6      999.0      1016.8      41.6      22.8   
   18.08.2019 г. 21:30:53      26.6      998.9      1016.7      43.0      23.0   
   18.08.2019 г. 21:00:54      27.0      998.7      1016.5      47.9      24.0   
   18.08.2019 г. 20:30:54      27.1      998.3      1016.1      50.1      25.9   
   18.08.2019 г. 20:00:54      27.1      998.3      1016.1      50.4      29.4   
   18.08.2019 г. 19:30:54      27.0      998.2      1016.0      48.8      31.6   
   18.08.2019 г. 19:00:54      26.9      998.1      1015.9      47.6      32.4   
   18.08.2019 г. 18:30:54      26.9      998.1      1015.9      47.2      33.5   
   18.08.2019 г. 18:00:55      26.8      998.2      1016.0      46.7      34.9   
   18.08.2019 г. 17:30:54      26.8      998.2      1016.0      46.4      36.5   
   18.08.2019 г. 17:00:55      26.8      998.3      1016.1      45.9      35.3   
   18.08.2019 г. 16:30:54      26.7      998.5      1016.3      45.2      34.1   
   18.08.2019 г. 16:00:55      26.6      998.6      1016.4      44.9      32.9   
   18.08.2019 г. 15:30:55      26.5      998.6      1016.4      43.4      31.7   
   18.08.2019 г. 15:00:55      26.4      998.7      1016.5      41.4      30.5   
   18.08.2019 г. 14:30:55      26.4      999.0      1016.8      43.0      29.3   
   18.08.2019 г. 14:00:55      26.3      999.2      1017.0      42.5      28.1   
   18.08.2019 г. 13:30:55      26.3      999.3      1017.2      42.8      27.5   
   18.08.2019 г. 13:00:56      26.3      999.4      1017.2      43.9      26.9   
   18.08.2019 г. 12:30:55      26.2      999.5      1017.3      44.1      26.1   
   18.08.2019 г. 12:00:56      26.2      999.5      1017.3      45.3      25.3   
   18.08.2019 г. 11:30:55      26.1      999.5      1017.3      45.5      24.5   
   18.08.2019 г. 11:00:55      26.1      999.7      1017.5      45.8      23.5   
   18.08.2019 г. 10:30:55      26.0      999.5      1017.4      45.7      22.6   
   18.08.2019 г. 10:00:55      25.8      999.7      1017.5      46.1      21.8   
   18.08.2019 г. 09:30:56      25.6      999.4      1017.3      46.3      20.8   

BaroSL graphic

TEMPE graphic